createdAt,value
2023-03-29T00:38:54.867Z,-1.38
2023-03-29T00:49:36.196Z,-0.73
2023-03-29T00:52:46.541Z,-0.72
2023-03-29T00:56:06.877Z,-0.68
2023-03-29T00:59:21.882Z,-0.74
2023-03-29T01:02:40.155Z,-0.84
2023-03-29T01:05:55.881Z,-0.96
2023-03-29T01:09:12.900Z,-0.88
2023-03-29T01:12:31.342Z,-0.96
2023-03-29T01:15:38.451Z,-0.94
2023-03-29T01:18:47.209Z,-0.92
2023-03-29T01:22:13.925Z,-1.03
2023-03-29T01:25:35.979Z,-1.33
2023-03-29T01:28:54.855Z,-1.80
2023-03-29T01:32:22.495Z,-1.28
2023-03-29T01:58:52.944Z,-1.71
2023-03-29T02:02:05.790Z,-1.20
2023-03-29T02:05:20.305Z,-1.25
2023-03-29T02:08:47.057Z,-1.35
2023-03-29T02:15:57.267Z,-1.72
2023-03-29T02:19:05.197Z,-1.51
2023-03-29T02:22:13.866Z,-1.51
2023-03-29T02:25:24.755Z,-1.66
2023-03-29T02:28:34.152Z,-1.18
2023-03-29T02:31:53.829Z,-1.42
2023-03-29T02:35:13.140Z,-1.65
2023-03-29T02:38:20.508Z,-1.60
2023-03-29T02:41:30.753Z,-1.48
2023-03-29T02:44:45.234Z,-1.43
2023-03-29T02:48:00.489Z,-1.45
2023-03-29T02:51:20.057Z,-1.44
2023-03-29T02:54:32.140Z,-1.47
2023-03-29T02:57:41.120Z,-1.47
2023-03-29T03:00:51.747Z,-1.49
2023-03-29T03:04:02.597Z,-1.50
2023-03-29T03:07:23.094Z,-1.52
2023-03-29T03:10:39.535Z,-1.52
2023-03-29T03:13:47.059Z,-1.78
2023-03-29T03:20:59.568Z,-1.68
2023-03-29T03:24:08.220Z,-2.15
2023-03-29T03:30:52.010Z,-2.08
2023-03-29T03:42:11.997Z,-2.39
2023-03-29T03:45:24.943Z,-2.61
2023-03-29T03:49:00.554Z,-3.14
2023-03-29T03:56:09.264Z,-2.79
2023-03-29T04:03:26.782Z,-3.45
2023-03-29T04:06:33.857Z,-2.94
2023-03-29T04:09:58.564Z,-2.94
2023-03-29T04:13:26.589Z,-3.01
2023-03-29T04:16:50.996Z,-2.93
2023-03-29T04:20:31.146Z,-2.95
2023-03-29T04:23:47.034Z,-3.01
2023-03-29T04:26:55.446Z,-3.05
2023-03-29T04:30:03.287Z,-3.12
2023-03-29T04:33:34.563Z,-3.07
2023-03-29T04:36:44.157Z,-3.05
2023-03-29T04:40:07.482Z,-3.02
2023-03-29T04:43:26.088Z,-3.03
2023-03-29T04:46:40.688Z,-3.10
2023-03-29T04:50:22.141Z,-3.13
2023-03-29T04:53:31.696Z,-3.20
2023-03-29T04:56:38.329Z,-3.33
2023-03-29T05:00:15.669Z,-3.66
2023-03-29T05:03:42.757Z,-3.18
2023-03-29T05:06:57.727Z,-3.72
2023-03-29T05:25:47.961Z,-3.23
2023-03-29T05:28:58.004Z,-2.96
2023-03-29T06:06:56.086Z,-1.60
2023-03-29T06:25:55.205Z,-1.63
2023-03-29T06:29:05.617Z,-1.40
2023-03-29T06:32:13.160Z,-1.04
2023-03-29T06:39:38.412Z,-0.39
2023-03-29T06:43:05.640Z,0.15
2023-03-29T06:46:31.127Z,1.18
2023-03-29T06:50:05.046Z,2.05
2023-03-29T06:53:18.651Z,2.86
2023-03-29T06:56:35.178Z,3.46
2023-03-29T06:59:49.515Z,4.49
2023-03-29T07:03:13.514Z,5.30
2023-03-29T07:06:20.796Z,5.77
2023-03-29T07:09:30.039Z,5.86
2023-03-29T07:12:54.881Z,6.39
2023-03-29T07:16:02.176Z,7.01
2023-03-29T07:19:29.114Z,7.39
2023-03-29T07:22:35.965Z,7.86
2023-03-29T07:25:43.561Z,8.23
2023-03-29T07:28:50.745Z,8.86
2023-03-29T07:31:57.735Z,8.97
2023-03-29T07:35:26.865Z,9.09
2023-03-29T07:38:34.026Z,9.25
2023-03-29T07:41:49.738Z,9.67
2023-03-29T07:44:56.019Z,9.41
2023-03-29T07:48:03.694Z,9.39
2023-03-29T07:51:29.639Z,9.53
2023-03-29T07:54:46.975Z,9.43
2023-03-29T07:58:07.297Z,9.99
2023-03-29T08:01:18.731Z,10.32
2023-03-29T08:04:52.060Z,10.84
2023-03-29T08:08:27.043Z,11.23
2023-03-29T08:11:38.856Z,11.35
2023-03-29T08:14:53.718Z,11.76
2023-03-29T08:18:11.016Z,12.11
2023-03-29T08:21:17.818Z,12.14
2023-03-29T08:24:30.367Z,12.05
2023-03-29T08:27:42.712Z,12.23
2023-03-29T08:30:50.565Z,12.72
2023-03-29T08:33:57.934Z,13.06
2023-03-29T08:37:24.882Z,12.97
2023-03-29T08:40:38.182Z,12.71
2023-03-29T08:44:11.607Z,12.81
2023-03-29T08:47:38.146Z,13.35
2023-03-29T08:50:53.666Z,13.73
2023-03-29T08:54:09.564Z,13.98
2023-03-29T08:57:52.083Z,13.99
2023-03-29T09:01:12.158Z,13.86
2023-03-29T09:04:38.690Z,14.12
2023-03-29T09:07:56.411Z,14.30
2023-03-29T09:11:31.861Z,14.27
2023-03-29T09:15:09.510Z,14.13
2023-03-29T09:18:37.363Z,14.25
2023-03-29T09:22:00.115Z,14.65
2023-03-29T09:25:21.923Z,15.41
2023-03-29T09:28:40.381Z,15.86
2023-03-29T09:31:50.531Z,16.00
2023-03-29T09:35:18.529Z,16.44
2023-03-29T09:38:26.085Z,17.01
2023-03-29T09:41:41.839Z,17.06
2023-03-29T09:44:55.774Z,17.15
2023-03-29T09:48:17.709Z,17.72
2023-03-29T09:51:37.007Z,18.02
2023-03-29T09:54:44.181Z,17.94
2023-03-29T09:58:18.970Z,18.12
2023-03-29T10:01:41.782Z,17.92
2023-03-29T10:05:01.068Z,18.09
2023-03-29T10:08:22.947Z,17.95
2023-03-29T10:11:36.472Z,17.99
2023-03-29T10:14:51.490Z,18.17
2023-03-29T10:18:04.361Z,18.38
2023-03-29T10:21:20.518Z,18.45
2023-03-29T10:24:30.009Z,18.26
2023-03-29T10:27:37.569Z,18.25
2023-03-29T10:30:44.020Z,18.52
2023-03-29T10:33:57.328Z,18.10
2023-03-29T10:37:08.567Z,18.46
2023-03-29T10:40:28.855Z,19.02
2023-03-29T10:43:42.645Z,18.90
2023-03-29T10:46:49.372Z,18.97
2023-03-29T10:49:59.017Z,19.02
2023-03-29T10:53:21.539Z,18.97
2023-03-29T10:56:42.436Z,18.53
2023-03-29T11:00:05.089Z,18.79
2023-03-29T11:03:49.535Z,19.03
2023-03-29T11:07:22.820Z,18.53
2023-03-29T11:10:51.796Z,18.22
2023-03-29T11:14:16.065Z,17.37
2023-03-29T11:17:51.116Z,17.34
2023-03-29T11:21:13.116Z,17.24
2023-03-29T11:24:37.352Z,17.37
2023-03-29T11:27:59.757Z,17.71
2023-03-29T11:31:22.180Z,18.04
2023-03-29T11:34:47.118Z,18.42
2023-03-29T11:38:05.776Z,18.54
2023-03-29T11:41:22.297Z,18.94
2023-03-29T11:44:34.492Z,19.61
2023-03-29T11:47:48.852Z,19.91
2023-03-29T11:51:07.032Z,19.41
2023-03-29T11:54:24.443Z,18.90
2023-03-29T11:57:40.260Z,18.96
2023-03-29T12:00:56.566Z,18.67
2023-03-29T12:04:13.374Z,18.42
2023-03-29T12:07:30.987Z,18.19
2023-03-29T12:10:45.153Z,17.94
2023-03-29T12:13:59.618Z,17.65
2023-03-29T12:17:18.486Z,17.73
2023-03-29T12:20:32.265Z,17.71
2023-03-29T12:23:41.626Z,17.61
2023-03-29T12:27:20.941Z,17.67
2023-03-29T12:30:45.850Z,17.56
2023-03-29T12:34:35.154Z,17.40
2023-03-29T12:38:22.490Z,17.62
2023-03-29T12:41:52.137Z,17.88
2023-03-29T12:45:40.304Z,17.20
2023-03-29T12:48:54.045Z,16.68
2023-03-29T12:52:07.904Z,16.36
2023-03-29T12:55:33.177Z,16.20
2023-03-29T12:58:56.285Z,15.92
2023-03-29T13:02:10.057Z,15.45
2023-03-29T13:05:36.567Z,15.29
2023-03-29T13:08:48.759Z,15.36
2023-03-29T13:11:58.846Z,15.39
2023-03-29T13:15:25.471Z,15.12
2023-03-29T13:18:58.129Z,14.69
2023-03-29T13:22:33.083Z,14.71
2023-03-29T13:26:11.642Z,14.76
2023-03-29T13:29:48.233Z,14.56
2023-03-29T13:33:17.753Z,14.51
2023-03-29T13:36:48.229Z,14.35
2023-03-29T13:39:58.439Z,14.08
2023-03-29T13:43:24.625Z,14.12
2023-03-29T13:46:51.404Z,14.48
2023-03-29T13:50:05.624Z,14.80
2023-03-29T13:53:28.182Z,15.18
2023-03-29T13:56:45.251Z,15.45
2023-03-29T14:00:02.827Z,15.51
2023-03-29T14:03:31.185Z,16.00
2023-03-29T14:06:41.910Z,16.38
2023-03-29T14:09:54.048Z,16.43
2023-03-29T14:13:04.164Z,16.53
2023-03-29T14:16:16.303Z,16.63
2023-03-29T14:19:33.263Z,16.95
2023-03-29T14:22:40.838Z,16.90
2023-03-29T14:25:46.975Z,16.26
2023-03-29T14:28:59.098Z,16.11
2023-03-29T14:32:19.134Z,16.06
2023-03-29T14:35:35.340Z,16.29
2023-03-29T14:38:42.725Z,16.42
2023-03-29T14:41:55.067Z,16.42
2023-03-29T14:45:09.537Z,16.40
2023-03-29T14:48:19.790Z,16.77
2023-03-29T14:51:30.776Z,16.90
2023-03-29T14:54:38.749Z,16.64
2023-03-29T14:57:46.221Z,16.18
2023-03-29T15:00:55.530Z,15.90
2023-03-29T15:04:09.245Z,15.58
2023-03-29T15:07:17.149Z,15.47
2023-03-29T15:10:23.765Z,15.76
2023-03-29T15:13:31.937Z,15.88
2023-03-29T15:16:45.024Z,15.62
2023-03-29T15:19:56.384Z,15.70
2023-03-29T15:23:06.913Z,15.76
2023-03-29T15:26:23.492Z,15.85
2023-03-29T15:29:42.159Z,15.76
2023-03-29T15:32:49.299Z,15.63
2023-03-29T15:35:58.275Z,15.38
2023-03-29T15:39:05.044Z,14.90
2023-03-29T15:42:13.676Z,14.67
2023-03-29T15:45:26.050Z,13.97
2023-03-29T15:48:33.983Z,13.57
2023-03-29T15:51:44.611Z,13.44
2023-03-29T15:54:50.627Z,13.26
2023-03-29T15:57:59.094Z,13.08
2023-03-29T16:01:23.801Z,12.92
2023-03-29T16:04:30.659Z,12.62
2023-03-29T16:07:39.143Z,12.32
2023-03-29T16:10:47.298Z,12.02
2023-03-29T16:13:53.489Z,11.67
2023-03-29T16:17:06.168Z,11.57
2023-03-29T16:20:15.149Z,11.53
2023-03-29T16:23:24.721Z,11.40
2023-03-29T16:26:32.207Z,11.22
2023-03-29T16:29:41.858Z,10.86
2023-03-29T16:32:48.218Z,10.61
2023-03-29T16:35:55.461Z,10.42
2023-03-29T16:39:05.897Z,10.32
2023-03-29T16:42:14.813Z,10.24
2023-03-29T16:45:22.745Z,10.26
2023-03-29T16:48:30.098Z,10.26
2023-03-29T16:51:36.295Z,10.30
2023-03-29T16:54:45.646Z,10.29
2023-03-29T16:57:54.823Z,10.31
2023-03-29T17:01:02.255Z,10.41
2023-03-29T17:04:08.502Z,10.33
2023-03-29T17:07:15.707Z,10.16
2023-03-29T17:10:24.984Z,10.07
2023-03-29T17:13:32.650Z,10.02
2023-03-29T17:16:39.288Z,9.86
2023-03-29T17:19:46.119Z,9.69
2023-03-29T17:22:54.145Z,9.54
2023-03-29T17:26:03.709Z,9.43
2023-03-29T17:29:09.812Z,9.43
2023-03-29T17:32:16.785Z,9.25
2023-03-29T17:35:22.956Z,9.07
2023-03-29T17:38:30.603Z,8.91
2023-03-29T17:41:39.335Z,8.76
2023-03-29T17:44:46.413Z,8.60
2023-03-29T17:47:55.455Z,8.55
2023-03-29T17:51:02.314Z,8.55
2023-03-29T17:54:08.682Z,8.45
2023-03-29T17:57:17.993Z,8.39
2023-03-29T18:00:25.148Z,8.42
2023-03-29T18:03:32.104Z,8.25
2023-03-29T18:06:38.046Z,8.33
2023-03-29T18:09:44.721Z,8.43
2023-03-29T18:12:53.335Z,8.41
2023-03-29T18:16:00.193Z,8.35
2023-03-29T18:19:06.227Z,8.35
2023-03-29T18:22:12.964Z,8.40
2023-03-29T18:25:21.180Z,8.29
2023-03-29T18:28:33.763Z,8.30
2023-03-29T18:31:39.991Z,8.26
2023-03-29T18:34:46.761Z,8.22
2023-03-29T18:37:52.842Z,8.16
2023-03-29T18:40:59.727Z,8.16
2023-03-29T18:44:08.723Z,8.08
2023-03-29T18:47:15.329Z,7.96
2023-03-29T18:50:21.559Z,7.86
2023-03-29T18:53:28.574Z,7.83
2023-03-29T18:56:35.655Z,7.93
2023-03-29T18:59:44.967Z,7.88
2023-03-29T19:02:52.230Z,7.78
2023-03-29T19:05:59.196Z,7.69
2023-03-29T19:09:05.916Z,7.73
2023-03-29T19:12:12.848Z,7.76
2023-03-29T19:15:22.442Z,7.83
2023-03-29T19:18:29.461Z,7.70
2023-03-29T19:21:36.225Z,7.46
2023-03-29T19:24:43.048Z,7.29
2023-03-29T19:27:50.544Z,7.33
2023-03-29T19:31:02.142Z,7.32
2023-03-29T19:34:09.930Z,7.40
2023-03-29T19:37:17.794Z,7.46
2023-03-29T19:40:23.889Z,7.43
2023-03-29T19:43:31.918Z,7.30
2023-03-29T19:46:40.746Z,7.35
2023-03-29T19:49:47.929Z,7.40
2023-03-29T19:52:54.708Z,7.32
2023-03-29T19:56:02.265Z,7.25
2023-03-29T19:59:09.128Z,7.24
2023-03-29T20:02:18.448Z,7.12
2023-03-29T20:05:24.489Z,6.95
2023-03-29T20:08:31.439Z,6.99
2023-03-29T20:11:37.629Z,6.98
2023-03-29T20:14:44.313Z,6.86
2023-03-29T20:17:54.146Z,6.79
2023-03-29T20:21:02.192Z,6.84
2023-03-29T20:24:09.630Z,6.88
2023-03-29T20:27:16.946Z,6.88
2023-03-29T20:30:24.005Z,6.90
2023-03-29T20:33:33.536Z,6.94
2023-03-29T20:36:40.528Z,6.98
2023-03-29T20:39:47.946Z,6.92
2023-03-29T20:42:55.917Z,6.93
2023-03-29T20:46:03.042Z,7.00
2023-03-29T20:49:12.150Z,7.06
2023-03-29T20:52:21.197Z,7.10
2023-03-29T20:55:30.741Z,7.13
2023-03-29T20:58:42.443Z,7.15
2023-03-29T21:01:50.489Z,6.99
2023-03-29T21:05:02.650Z,6.73
2023-03-29T21:08:09.075Z,6.75
2023-03-29T21:11:17.418Z,6.63
2023-03-29T21:14:23.454Z,6.51
2023-03-29T21:17:30.428Z,6.39
2023-03-29T21:20:40.663Z,6.10
2023-03-29T21:23:47.704Z,5.94
2023-03-29T21:26:53.651Z,5.85
2023-03-29T21:30:00.256Z,5.80
2023-03-29T21:33:06.210Z,5.75
2023-03-29T21:36:16.817Z,5.73
2023-03-29T21:39:22.769Z,5.78
2023-03-29T21:42:29.509Z,5.81
2023-03-29T21:45:35.925Z,5.81
2023-03-29T21:48:42.669Z,5.84
2023-03-29T21:51:51.541Z,5.87
2023-03-29T21:54:58.287Z,5.96
2023-03-29T21:58:04.200Z,5.96
2023-03-29T22:01:11.904Z,6.02
2023-03-29T22:04:33.202Z,6.21
2023-03-29T22:07:45.744Z,6.27
2023-03-29T22:10:55.583Z,6.33
2023-03-29T22:14:02.240Z,6.33
2023-03-29T22:17:09.676Z,6.26
2023-03-29T22:20:18.614Z,6.37
2023-03-29T22:23:28.031Z,6.46
2023-03-29T22:26:36.234Z,6.57
2023-03-29T22:29:42.416Z,6.43
2023-03-29T22:32:49.025Z,6.41
2023-03-29T22:35:54.979Z,6.35
2023-03-29T22:39:04.526Z,6.42
2023-03-29T22:42:10.564Z,6.58
2023-03-29T22:45:17.498Z,6.67
2023-03-29T22:48:23.471Z,6.69
2023-03-29T22:51:30.221Z,6.71
2023-03-29T22:54:38.668Z,6.83
2023-03-29T22:57:45.681Z,6.80
2023-03-29T23:00:51.810Z,6.69
2023-03-29T23:03:58.646Z,6.72
2023-03-29T23:07:04.637Z,6.70
2023-03-29T23:10:16.022Z,6.84
2023-03-29T23:13:26.145Z,6.78
2023-03-29T23:16:32.994Z,6.86
2023-03-29T23:19:39.151Z,6.91
2023-03-29T23:22:45.776Z,6.75
2023-03-29T23:25:56.695Z,6.80
2023-03-29T23:29:04.464Z,6.75
2023-03-29T23:32:10.776Z,6.79
2023-03-29T23:35:18.052Z,6.78
2023-03-29T23:38:24.450Z,6.70
2023-03-29T23:41:33.985Z,6.75
2023-03-29T23:44:40.061Z,6.83
2023-03-29T23:47:48.093Z,6.86
2023-03-29T23:50:54.607Z,6.84
2023-03-29T23:54:01.467Z,6.75
2023-03-29T23:57:11.060Z,6.87
